Strona główna
METAR-TAF:

METAR-TAF

Lotnisko :

Port lotniczy Curaçao

Curaçao, Antyle Holenderskie

Szerokość geograficzna: 12-12N, Długość geograficzna: 068-58W, wysokość: 9 m

Aktualna obserwacja pogody

Raport powstał 47 minut temu, godzina 12:00 UTC
Wiatr 11 kt od wschód
Temperatura 29°C
Wilgotność 74%
Ciśnienie 1013 hPa
Widzialność 10 km lub więcej
Mało chmury na wysokości 2000 ft

METAR: TNCC 161200Z 10011KT 9999 FEW020 29/24 Q1013 NOSIG

czas: 08:47 (12:47 UTC)

Prognoza

Raport powstał 2 godziny i 47 minut temu, godzina 10:00 UTC
Prognoza ważna od 16 godzina 12 UTC do 17 godzina 12 UTC
Wiatr 12 kt od wschód
Widzialność 10 km lub więcej
Rozproszone chmury na wysokości 1800 ft
Przejściowo
od 16 godzina 12 UTC do 16 godzina 16 UTC
Przerywane chmury na wysokości 1500 ft

TAF: TNCC 161000Z 1612/1712 10012KT 9999 SCT018 TEMPO 1612/1616 BKN015

Obserwacja i prognoza pogody dla ponad 4000 lotnisk (raport METAR i TAF).

Dostępne stacje oznaczono żółtymi i czerwonymi punktami na mapie.

Najedź kursorem aby zobaczyć nazwę stacji.

Kliknij aby zobaczyć obserwacje i prognozy pogody.

Aby zmienić mapę: kliknij na zielony przycisk z czarnym krzyżykiem, aby powiększyć; na zielony przycisk z myślnikiem, aby pomniejszyć; na zielone strzałki, aby przejść do map sąsiednich.


METAR-TAF: